createdAt,value
2023-03-26T00:02:02.032Z,59.86
2023-03-26T00:07:05.361Z,60.03
2023-03-26T00:12:07.947Z,60.00
2023-03-26T00:17:10.403Z,59.94
2023-03-26T00:22:13.851Z,60.26
2023-03-26T00:27:16.372Z,60.24
2023-03-26T00:32:18.953Z,60.41
2023-03-26T00:37:28.482Z,60.35
2023-03-26T00:42:32.190Z,60.56
2023-03-26T00:47:36.333Z,60.85
2023-03-26T00:52:39.383Z,60.90
2023-03-26T00:57:41.963Z,61.32
2023-03-26T01:02:45.393Z,61.47
2023-03-26T01:07:48.289Z,61.78
2023-03-26T01:12:50.754Z,61.72
2023-03-26T01:17:58.076Z,62.22
2023-03-26T01:23:05.571Z,62.30
2023-03-26T01:28:12.761Z,62.49
2023-03-26T01:33:34.371Z,62.25
2023-03-26T01:38:50.196Z,62.77
2023-03-26T01:44:06.887Z,63.78
2023-03-26T01:49:13.746Z,64.66
2023-03-26T01:54:23.285Z,64.86
2023-03-26T01:59:54.747Z,64.48
2023-03-26T02:05:26.385Z,64.48
2023-03-26T02:10:37.107Z,64.50
2023-03-26T02:15:41.316Z,64.94
2023-03-26T02:20:44.128Z,65.04
2023-03-26T02:25:47.867Z,65.09
2023-03-26T02:30:50.617Z,64.78
2023-03-26T02:35:53.906Z,64.97
2023-03-26T02:40:56.894Z,65.12
2023-03-26T02:46:10.505Z,65.43
2023-03-26T02:51:48.169Z,65.86
2023-03-26T02:57:01.615Z,65.70
2023-03-26T03:02:24.549Z,65.69
2023-03-26T03:07:32.771Z,65.56
2023-03-26T03:12:37.121Z,65.63
2023-03-26T03:17:40.790Z,65.46
2023-03-26T03:22:43.429Z,64.68
2023-03-26T03:27:46.129Z,63.18
2023-03-26T03:32:49.774Z,62.47
2023-03-26T03:38:00.299Z,61.55
2023-03-26T03:43:07.140Z,60.29
2023-03-26T03:48:19.307Z,59.10
2023-03-26T03:53:26.378Z,58.42
2023-03-26T03:58:31.521Z,58.04
2023-03-26T04:03:46.959Z,57.12
2023-03-26T04:08:53.024Z,54.78
2023-03-26T04:13:56.583Z,53.34
2023-03-26T04:19:17.894Z,52.40
2023-03-26T04:24:22.683Z,50.63
2023-03-26T04:29:50.049Z,48.79
2023-03-26T04:35:01.045Z,47.62
2023-03-26T04:40:10.500Z,45.32
2023-03-26T04:45:35.982Z,44.00
2023-03-26T04:50:38.644Z,41.65
2023-03-26T04:56:05.739Z,40.65
2023-03-26T05:01:28.626Z,39.53
2023-03-26T05:06:34.602Z,37.71
2023-03-26T05:11:43.901Z,36.56
2023-03-26T05:16:49.280Z,36.18
2023-03-26T05:21:52.305Z,35.64
2023-03-26T05:26:56.203Z,36.00
2023-03-26T05:32:00.145Z,35.22
2023-03-26T05:37:04.926Z,35.71
2023-03-26T05:42:21.754Z,35.14
2023-03-26T05:47:37.813Z,33.98
2023-03-26T05:52:40.891Z,32.36
2023-03-26T05:58:01.705Z,31.83
2023-03-26T06:03:24.832Z,31.47
2023-03-26T06:09:02.041Z,31.08
2023-03-26T06:14:07.198Z,32.39
2023-03-26T06:19:12.100Z,31.98
2023-03-26T06:24:43.677Z,32.75
2023-03-26T06:30:13.285Z,32.65
2023-03-26T06:35:38.905Z,32.44
2023-03-26T06:40:41.526Z,32.34
2023-03-26T06:45:57.924Z,31.92
2023-03-26T06:51:18.740Z,31.59
2023-03-26T06:56:53.990Z,31.56
2023-03-26T07:01:56.552Z,32.03
2023-03-26T07:07:18.442Z,32.70
2023-03-26T07:12:39.562Z,31.95
2023-03-26T07:18:11.104Z,31.32
2023-03-26T07:23:20.247Z,31.47
2023-03-26T07:29:07.723Z,31.28
2023-03-26T07:35:16.313Z,31.09
2023-03-26T07:41:11.388Z,30.85
2023-03-26T07:46:43.379Z,29.49
2023-03-26T07:51:56.185Z,27.47
2023-03-26T07:57:24.345Z,25.50
2023-03-26T08:02:49.140Z,25.05
2023-03-26T08:08:59.452Z,25.02
2023-03-26T08:14:25.968Z,24.83
2023-03-26T08:19:50.869Z,22.97
2023-03-26T08:25:05.662Z,23.62
2023-03-26T08:30:25.597Z,23.16
2023-03-26T08:35:28.690Z,22.14
2023-03-26T08:40:49.377Z,22.35
2023-03-26T08:46:16.546Z,22.97
2023-03-26T08:51:44.026Z,23.12
2023-03-26T08:56:59.782Z,23.67
2023-03-26T09:02:38.654Z,22.96
2023-03-26T09:08:02.738Z,22.65
2023-03-26T09:13:28.044Z,23.16
2023-03-26T09:18:51.954Z,23.78
2023-03-26T09:24:30.137Z,24.72
2023-03-26T09:29:57.517Z,24.95
2023-03-26T09:35:30.470Z,25.37
2023-03-26T09:41:05.075Z,25.71
2023-03-26T09:46:48.874Z,25.83
2023-03-26T09:51:57.728Z,25.36
2023-03-26T09:57:09.016Z,25.07
2023-03-26T10:02:49.869Z,25.34
2023-03-26T10:08:01.816Z,25.73
2023-03-26T10:13:31.523Z,25.94
2023-03-26T10:18:42.874Z,25.90
2023-03-26T10:23:51.529Z,26.17
2023-03-26T10:29:09.745Z,26.84
2023-03-26T10:34:57.048Z,26.99
2023-03-26T10:40:33.233Z,27.17
2023-03-26T10:45:38.591Z,27.23
2023-03-26T10:50:41.210Z,26.74
2023-03-26T10:55:47.112Z,26.46
2023-03-26T11:01:02.263Z,26.31
2023-03-26T11:06:47.364Z,26.64
2023-03-26T11:11:59.446Z,26.79
2023-03-26T11:17:39.510Z,26.95
2023-03-26T11:23:25.136Z,26.90
2023-03-26T11:29:03.660Z,26.35
2023-03-26T11:34:21.606Z,26.50
2023-03-26T11:39:33.929Z,26.07
2023-03-26T11:44:43.311Z,25.70
2023-03-26T11:49:48.372Z,26.01
2023-03-26T11:54:51.458Z,25.79
2023-03-26T12:00:17.112Z,25.53
2023-03-26T12:05:25.149Z,25.71
2023-03-26T12:10:38.466Z,25.38
2023-03-26T12:15:44.656Z,25.09
2023-03-26T12:20:48.385Z,25.25
2023-03-26T12:26:04.457Z,25.21
2023-03-26T12:31:07.840Z,25.19
2023-03-26T12:36:36.871Z,25.56
2023-03-26T12:44:44.554Z,25.50
2023-03-26T12:47:57.561Z,25.98
2023-03-26T12:52:55.933Z,26.16
2023-03-26T12:58:18.848Z,26.04
2023-03-26T13:03:45.468Z,26.61
2023-03-26T13:08:57.949Z,26.79
2023-03-26T13:14:39.533Z,26.99
2023-03-26T13:20:22.675Z,27.55
2023-03-26T13:25:43.464Z,27.62
2023-03-26T13:31:24.137Z,28.15
2023-03-26T13:36:46.904Z,28.01
2023-03-26T13:41:52.938Z,28.19
2023-03-26T13:47:04.143Z,28.00
2023-03-26T13:52:12.470Z,28.78
2023-03-26T13:57:25.213Z,29.40
2023-03-26T14:02:40.891Z,29.44
2023-03-26T14:08:01.837Z,29.65
2023-03-26T14:13:15.965Z,29.96
2023-03-26T14:18:46.158Z,30.34
2023-03-26T14:24:03.861Z,31.22
2023-03-26T14:29:29.083Z,31.53
2023-03-26T14:34:58.825Z,32.18
2023-03-26T14:40:17.306Z,32.38
2023-03-26T14:45:44.377Z,32.76
2023-03-26T14:50:47.008Z,33.02
2023-03-26T14:56:15.769Z,33.37
2023-03-26T15:01:47.516Z,33.54
2023-03-26T15:06:50.219Z,34.27
2023-03-26T15:12:18.624Z,35.04
2023-03-26T15:17:57.853Z,35.46
2023-03-26T15:23:28.755Z,35.36
2023-03-26T15:28:55.861Z,35.91
2023-03-26T15:34:01.270Z,36.67
2023-03-26T15:39:59.910Z,36.85
2023-03-26T15:45:56.581Z,37.76
2023-03-26T15:51:47.051Z,38.25
2023-03-26T15:57:22.902Z,39.46
2023-03-26T16:02:50.551Z,39.76
2023-03-26T16:08:07.936Z,40.51
2023-03-26T16:13:40.956Z,40.71
2023-03-26T16:18:45.593Z,41.24
2023-03-26T16:23:49.351Z,41.67
2023-03-26T16:28:55.251Z,43.04
2023-03-26T16:34:10.942Z,43.49
2023-03-26T16:39:49.562Z,43.73
2023-03-26T16:45:01.028Z,43.25
2023-03-26T16:50:18.998Z,42.90
2023-03-26T16:55:31.214Z,42.39
2023-03-26T17:00:39.692Z,42.10
2023-03-26T17:05:57.228Z,42.22
2023-03-26T17:11:23.653Z,43.06
2023-03-26T17:16:34.600Z,43.33
2023-03-26T17:21:56.111Z,44.55
2023-03-26T17:27:36.189Z,45.05
2023-03-26T17:33:03.767Z,45.98
2023-03-26T17:38:18.543Z,46.71
2023-03-26T17:43:57.699Z,48.52
2023-03-26T17:49:16.880Z,49.26
2023-03-26T17:54:34.021Z,50.04
2023-03-26T17:59:39.194Z,50.69
2023-03-26T18:04:45.956Z,51.41
2023-03-26T18:10:10.832Z,51.55
2023-03-26T18:15:58.916Z,52.11
2023-03-26T18:21:07.427Z,52.19
2023-03-26T18:26:23.245Z,52.54
2023-03-26T18:31:27.142Z,52.41
2023-03-26T18:36:31.729Z,52.92
2023-03-26T18:41:41.968Z,52.94
2023-03-26T18:46:46.117Z,53.87
2023-03-26T18:51:56.798Z,54.26
2023-03-26T18:57:15.056Z,55.48
2023-03-26T19:02:20.031Z,56.03
2023-03-26T19:07:26.743Z,57.08
2023-03-26T19:12:36.873Z,57.20
2023-03-26T19:17:46.118Z,57.64
2023-03-26T19:22:49.656Z,57.52
2023-03-26T19:27:52.780Z,57.58
2023-03-26T19:32:56.153Z,57.90
2023-03-26T19:38:44.855Z,58.66
2023-03-26T19:43:52.867Z,58.82
2023-03-26T19:48:59.247Z,59.61
2023-03-26T19:54:04.906Z,59.55
2023-03-26T19:59:07.894Z,60.16
2023-03-26T20:04:12.543Z,60.50
2023-03-26T20:09:16.532Z,61.25
2023-03-26T20:14:26.409Z,61.14
2023-03-26T20:19:29.872Z,61.52
2023-03-26T20:24:33.828Z,62.50
2023-03-26T20:29:36.974Z,62.82
2023-03-26T20:34:40.201Z,63.39
2023-03-26T20:39:43.097Z,63.89
2023-03-26T20:44:45.719Z,64.35
2023-03-26T20:49:48.206Z,64.89
2023-03-26T20:54:50.759Z,65.49
2023-03-26T20:59:55.893Z,66.14
2023-03-26T21:04:58.603Z,66.39
2023-03-26T21:10:02.234Z,66.45
2023-03-26T21:15:13.358Z,67.30
2023-03-26T21:20:20.109Z,67.29
2023-03-26T21:25:37.004Z,68.08
2023-03-26T21:30:40.130Z,67.82
2023-03-26T21:35:42.883Z,68.20
2023-03-26T21:40:52.923Z,68.14
2023-03-26T21:46:01.386Z,68.37
2023-03-26T21:51:05.688Z,68.38
2023-03-26T21:56:50.715Z,68.47
2023-03-26T22:02:00.700Z,68.27
2023-03-26T22:07:30.897Z,68.07
2023-03-26T22:12:33.458Z,68.33
2023-03-26T22:17:36.130Z,67.87
2023-03-26T22:22:49.240Z,67.63
2023-03-26T22:27:52.933Z,68.02
2023-03-26T22:32:55.914Z,68.16
2023-03-26T22:38:01.474Z,68.03
2023-03-26T22:43:04.842Z,68.00
2023-03-26T22:48:07.581Z,68.00
2023-03-26T22:53:10.210Z,67.85
2023-03-26T22:58:14.019Z,68.35
2023-03-26T23:03:16.560Z,68.11
2023-03-26T23:08:19.054Z,68.29
2023-03-26T23:13:22.360Z,68.48
2023-03-26T23:18:25.129Z,69.01
2023-03-26T23:23:30.177Z,69.18
2023-03-26T23:28:34.067Z,69.46
2023-03-26T23:33:38.755Z,69.35
2023-03-26T23:38:43.922Z,69.82
2023-03-26T23:43:54.153Z,70.82
2023-03-26T23:49:00.220Z,70.77
2023-03-26T23:54:03.069Z,71.03
2023-03-26T23:59:06.352Z,70.69
